sensor_id;sensor_type;location;lat;lon;timestamp;pressure;altitude;pressure_sealevel;temperature;humidity
55068;BME280;40965;52.368;9.712;2023-07-16T00:01:12;100204.91;;;20.44;89.93
55068;BME280;40965;52.368;9.712;2023-07-16T00:03:39;100198.13;;;20.38;89.90
55068;BME280;40965;52.368;9.712;2023-07-16T00:06:05;100208.00;;;20.36;90.09
55068;BME280;40965;52.368;9.712;2023-07-16T00:08:32;100217.97;;;20.32;90.53
55068;BME280;40965;52.368;9.712;2023-07-16T00:10:58;100207.66;;;20.26;90.19
55068;BME280;40965;52.368;9.712;2023-07-16T00:13:25;100211.44;;;20.22;90.32
55068;BME280;40965;52.368;9.712;2023-07-16T00:15:51;100211.59;;;20.19;90.22
55068;BME280;40965;52.368;9.712;2023-07-16T00:18:18;100197.72;;;20.14;90.61
55068;BME280;40965;52.368;9.712;2023-07-16T00:20:45;100173.28;;;20.07;90.77
55068;BME280;40965;52.368;9.712;2023-07-16T00:23:11;100163.59;;;20.06;90.66
55068;BME280;40965;52.368;9.712;2023-07-16T00:25:37;100156.66;;;20.04;90.36
55068;BME280;40965;52.368;9.712;2023-07-16T00:28:04;100161.97;;;20.04;90.70
55068;BME280;40965;52.368;9.712;2023-07-16T00:30:30;100171.75;;;20.03;90.37
55068;BME280;40965;52.368;9.712;2023-07-16T00:32:57;100171.75;;;20.03;90.53
55068;BME280;40965;52.368;9.712;2023-07-16T00:35:23;100143.47;;;20.02;90.24
55068;BME280;40965;52.368;9.712;2023-07-16T00:37:50;100142.53;;;20.03;90.45
55068;BME280;40965;52.368;9.712;2023-07-16T00:40:17;100117.19;;;19.97;90.62
55068;BME280;40965;52.368;9.712;2023-07-16T00:42:43;100138.53;;;19.96;90.63
55068;BME280;40965;52.368;9.712;2023-07-16T00:45:12;100190.88;;;19.94;90.78
55068;BME280;40965;52.368;9.712;2023-07-16T00:47:41;100208.44;;;19.96;90.78
55068;BME280;40965;52.368;9.712;2023-07-16T00:50:10;100211.19;;;19.95;90.84
55068;BME280;40965;52.368;9.712;2023-07-16T00:52:38;100203.38;;;19.92;91.08
55068;BME280;40965;52.368;9.712;2023-07-16T00:55:06;100191.22;;;19.88;91.15
55068;BME280;40965;52.368;9.712;2023-07-16T00:57:33;100190.44;;;19.86;91.21
55068;BME280;40965;52.368;9.712;2023-07-16T01:00:00;100196.59;;;19.86;91.28
55068;BME280;40965;52.368;9.712;2023-07-16T01:02:26;100208.94;;;19.87;91.48
55068;BME280;40965;52.368;9.712;2023-07-16T01:04:53;100233.78;;;19.86;91.55
55068;BME280;40965;52.368;9.712;2023-07-16T01:07:21;100243.41;;;19.89;91.21
55068;BME280;40965;52.368;9.712;2023-07-16T01:09:50;100242.69;;;19.85;91.56
55068;BME280;40965;52.368;9.712;2023-07-16T01:12:20;100226.00;;;19.83;91.71
55068;BME280;40965;52.368;9.712;2023-07-16T01:14:50;100213.72;;;19.80;91.77
55068;BME280;40965;52.368;9.712;2023-07-16T01:17:18;100220.91;;;19.78;91.99
55068;BME280;40965;52.368;9.712;2023-07-16T01:19:44;100215.59;;;19.78;92.08
55068;BME280;40965;52.368;9.712;2023-07-16T01:22:52;100215.59;;;19.78;92.33
55068;BME280;40965;52.368;9.712;2023-07-16T01:26:02;100221.63;;;19.82;91.90
55068;BME280;40965;52.368;9.712;2023-07-16T01:29:18;100243.56;;;19.86;91.97
55068;BME280;40965;52.368;9.712;2023-07-16T01:31:55;100251.47;;;19.87;91.48
55068;BME280;40965;52.368;9.712;2023-07-16T01:34:24;100245.44;;;19.83;91.79
55068;BME280;40965;52.368;9.712;2023-07-16T01:36:51;100251.75;;;19.81;92.10
55068;BME280;40965;52.368;9.712;2023-07-16T01:39:18;100250.97;;;19.79;92.10
55068;BME280;40965;52.368;9.712;2023-07-16T01:41:45;100244.00;;;19.76;92.57
55068;BME280;40965;52.368;9.712;2023-07-16T01:44:11;100236.31;;;19.72;92.91
55068;BME280;40965;52.368;9.712;2023-07-16T01:46:38;100240.69;;;19.73;92.67
55068;BME280;40965;52.368;9.712;2023-07-16T01:49:04;100232.81;;;19.71;92.57
55068;BME280;40965;52.368;9.712;2023-07-16T01:51:31;100215.91;;;19.72;92.64
55068;BME280;40965;52.368;9.712;2023-07-16T01:53:57;100216.88;;;19.71;92.32
55068;BME280;40965;52.368;9.712;2023-07-16T01:56:24;100216.28;;;19.66;92.40
55068;BME280;40965;52.368;9.712;2023-07-16T01:58:51;100224.22;;;19.66;92.17
55068;BME280;40965;52.368;9.712;2023-07-16T02:01:17;100222.59;;;19.63;92.00
55068;BME280;40965;52.368;9.712;2023-07-16T02:03:43;100217.34;;;19.62;92.01
55068;BME280;40965;52.368;9.712;2023-07-16T02:06:10;100210.41;;;19.59;92.25
55068;BME280;40965;52.368;9.712;2023-07-16T02:08:38;100208.72;;;19.58;92.12
55068;BME280;40965;52.368;9.712;2023-07-16T02:11:05;100206.28;;;19.54;92.24
55068;BME280;40965;52.368;9.712;2023-07-16T02:13:31;100214.25;;;19.54;92.62
55068;BME280;40965;52.368;9.712;2023-07-16T02:15:58;100204.44;;;19.56;92.57
55068;BME280;40965;52.368;9.712;2023-07-16T02:18:24;100220.41;;;19.54;92.67
55068;BME280;40965;52.368;9.712;2023-07-16T02:20:51;100232.06;;;19.51;92.48
55068;BME280;40965;52.368;9.712;2023-07-16T02:23:17;100223.50;;;19.46;93.13
55068;BME280;40965;52.368;9.712;2023-07-16T02:25:44;100222.28;;;19.36;93.78
55068;BME280;40965;52.368;9.712;2023-07-16T02:28:10;100232.31;;;19.29;94.11
55068;BME280;40965;52.368;9.712;2023-07-16T02:30:37;100236.25;;;19.22;95.00
55068;BME280;40965;52.368;9.712;2023-07-16T02:33:03;100242.47;;;19.21;95.05
55068;BME280;40965;52.368;9.712;2023-07-16T02:35:30;100231.03;;;19.21;95.56
55068;BME280;40965;52.368;9.712;2023-07-16T02:37:56;100237.25;;;19.20;95.36
55068;BME280;40965;52.368;9.712;2023-07-16T02:40:23;100243.41;;;19.20;95.36
55068;BME280;40965;52.368;9.712;2023-07-16T02:42:49;100240.75;;;19.20;95.61
55068;BME280;40965;52.368;9.712;2023-07-16T02:45:16;100239.91;;;19.20;95.38
55068;BME280;40965;52.368;9.712;2023-07-16T02:47:42;100230.31;;;19.17;95.21
55068;BME280;40965;52.368;9.712;2023-07-16T02:50:09;100234.84;;;19.15;95.31
55068;BME280;40965;52.368;9.712;2023-07-16T02:52:36;100232.44;;;19.10;95.53
55068;BME280;40965;52.368;9.712;2023-07-16T02:55:03;100244.06;;;19.08;96.05
55068;BME280;40965;52.368;9.712;2023-07-16T02:57:29;100256.53;;;19.06;96.32
55068;BME280;40965;52.368;9.712;2023-07-16T02:59:56;100257.63;;;19.01;96.37
55068;BME280;40965;52.368;9.712;2023-07-16T03:02:22;100256.16;;;18.96;96.68
55068;BME280;40965;52.368;9.712;2023-07-16T03:04:49;100260.75;;;18.92;96.82
55068;BME280;40965;52.368;9.712;2023-07-16T03:07:15;100264.75;;;18.82;97.23
55068;BME280;40965;52.368;9.712;2023-07-16T03:09:42;100272.38;;;18.71;98.06
55068;BME280;40965;52.368;9.712;2023-07-16T03:12:08;100271.69;;;18.67;98.46
55068;BME280;40965;52.368;9.712;2023-07-16T03:14:35;100273.34;;;18.70;97.96
55068;BME280;40965;52.368;9.712;2023-07-16T03:17:01;100264.41;;;18.71;97.12
55068;BME280;40965;52.368;9.712;2023-07-16T03:19:28;100270.69;;;18.70;96.80
55068;BME280;40965;52.368;9.712;2023-07-16T03:21:54;100267.16;;;18.69;96.32
55068;BME280;40965;52.368;9.712;2023-07-16T03:24:21;100272.91;;;18.60;96.79
55068;BME280;40965;52.368;9.712;2023-07-16T03:26:47;100267.06;;;18.53;97.00
55068;BME280;40965;52.368;9.712;2023-07-16T03:29:14;100265.69;;;18.44;97.09
55068;BME280;40965;52.368;9.712;2023-07-16T03:31:40;100278.19;;;18.42;97.32
55068;BME280;40965;52.368;9.712;2023-07-16T03:34:07;100286.91;;;18.44;96.89
55068;BME280;40965;52.368;9.712;2023-07-16T03:36:33;100284.97;;;18.48;96.88
55068;BME280;40965;52.368;9.712;2023-07-16T03:39:00;100292.84;;;18.49;96.78
55068;BME280;40965;52.368;9.712;2023-07-16T03:41:28;100297.78;;;18.57;96.10
55068;BME280;40965;52.368;9.712;2023-07-16T03:43:54;100293.41;;;18.56;95.85
55068;BME280;40965;52.368;9.712;2023-07-16T03:46:21;100306.59;;;18.58;95.95
55068;BME280;40965;52.368;9.712;2023-07-16T03:48:47;100297.00;;;18.55;95.69
55068;BME280;40965;52.368;9.712;2023-07-16T03:51:14;100302.72;;;18.46;96.07
55068;BME280;40965;52.368;9.712;2023-07-16T03:53:42;100295.94;;;18.40;96.62
55068;BME280;40965;52.368;9.712;2023-07-16T03:56:08;100310.75;;;18.44;96.41
55068;BME280;40965;52.368;9.712;2023-07-16T03:58:35;100322.78;;;18.51;96.18
55068;BME280;40965;52.368;9.712;2023-07-16T04:01:01;100320.13;;;18.51;95.88
55068;BME280;40965;52.368;9.712;2023-07-16T04:03:28;100323.06;;;18.45;96.34
55068;BME280;40965;52.368;9.712;2023-07-16T04:06:05;100334.84;;;18.40;96.42
55068;BME280;40965;52.368;9.712;2023-07-16T04:08:35;100331.31;;;18.39;96.71
55068;BME280;40965;52.368;9.712;2023-07-16T04:11:06;100333.19;;;18.37;96.79
55068;BME280;40965;52.368;9.712;2023-07-16T04:13:32;100334.31;;;18.31;96.71
55068;BME280;40965;52.368;9.712;2023-07-16T04:15:59;100342.13;;;18.34;97.04
55068;BME280;40965;52.368;9.712;2023-07-16T04:18:26;100336.84;;;18.34;96.94
55068;BME280;40965;52.368;9.712;2023-07-16T04:20:52;100342.06;;;18.36;96.95
55068;BME280;40965;52.368;9.712;2023-07-16T04:23:19;100347.09;;;18.42;96.90
55068;BME280;40965;52.368;9.712;2023-07-16T04:25:46;100348.38;;;18.52;96.38
55068;BME280;40965;52.368;9.712;2023-07-16T04:28:13;100359.19;;;18.67;95.78
55068;BME280;40965;52.368;9.712;2023-07-16T04:30:39;100377.06;;;18.81;94.75
55068;BME280;40965;52.368;9.712;2023-07-16T04:33:06;100373.31;;;18.85;94.67
55068;BME280;40965;52.368;9.712;2023-07-16T04:35:32;100376.69;;;18.89;94.16
55068;BME280;40965;52.368;9.712;2023-07-16T04:37:59;100372.56;;;18.83;94.62
55068;BME280;40965;52.368;9.712;2023-07-16T04:40:27;100374.72;;;18.75;94.87
55068;BME280;40965;52.368;9.712;2023-07-16T04:42:55;100376.13;;;18.63;95.19
55068;BME280;40965;52.368;9.712;2023-07-16T04:45:21;100389.69;;;18.57;95.89
55068;BME280;40965;52.368;9.712;2023-07-16T04:47:48;100394.28;;;18.53;95.93
55068;BME280;40965;52.368;9.712;2023-07-16T04:50:14;100398.72;;;18.52;96.02
55068;BME280;40965;52.368;9.712;2023-07-16T04:52:41;100403.88;;;18.56;95.97
55068;BME280;40965;52.368;9.712;2023-07-16T04:55:08;100405.31;;;18.63;95.77
55068;BME280;40965;52.368;9.712;2023-07-16T04:57:34;100405.25;;;18.64;95.58
55068;BME280;40965;52.368;9.712;2023-07-16T05:00:01;100408.56;;;18.70;95.57
55068;BME280;40965;52.368;9.712;2023-07-16T05:02:28;100415.50;;;18.72;95.72
55068;BME280;40965;52.368;9.712;2023-07-16T05:04:54;100411.91;;;18.73;95.54
55068;BME280;40965;52.368;9.712;2023-07-16T05:07:21;100416.00;;;18.80;95.16
55068;BME280;40965;52.368;9.712;2023-07-16T05:09:47;100407.88;;;18.83;94.78
55068;BME280;40965;52.368;9.712;2023-07-16T05:12:17;100407.63;;;18.90;94.24
55068;BME280;40965;52.368;9.712;2023-07-16T05:14:45;100406.53;;;18.94;93.94
55068;BME280;40965;52.368;9.712;2023-07-16T05:17:16;100415.38;;;18.94;94.23
55068;BME280;40965;52.368;9.712;2023-07-16T05:19:45;100422.97;;;19.02;93.50
55068;BME280;40965;52.368;9.712;2023-07-16T05:22:12;100415.03;;;19.02;93.21
55068;BME280;40965;52.368;9.712;2023-07-16T05:24:38;100421.00;;;19.06;92.69
55068;BME280;40965;52.368;9.712;2023-07-16T05:27:05;100423.66;;;19.06;92.75
55068;BME280;40965;52.368;9.712;2023-07-16T05:29:32;100417.34;;;19.08;92.32
55068;BME280;40965;52.368;9.712;2023-07-16T05:31:58;100426.97;;;19.11;92.18
55068;BME280;40965;52.368;9.712;2023-07-16T05:34:25;100431.16;;;19.15;91.80
55068;BME280;40965;52.368;9.712;2023-07-16T05:36:53;100433.06;;;19.13;91.12
55068;BME280;40965;52.368;9.712;2023-07-16T05:39:21;100442.03;;;19.10;91.16
55068;BME280;40965;52.368;9.712;2023-07-16T05:41:48;100440.00;;;19.15;90.30
55068;BME280;40965;52.368;9.712;2023-07-16T05:44:14;100443.31;;;19.21;89.66
55068;BME280;40965;52.368;9.712;2023-07-16T05:46:41;100432.31;;;19.28;87.74
55068;BME280;40965;52.368;9.712;2023-07-16T05:49:07;100436.53;;;19.32;87.42
55068;BME280;40965;52.368;9.712;2023-07-16T05:51:34;100445.22;;;19.36;86.79
55068;BME280;40965;52.368;9.712;2023-07-16T05:54:00;100447.88;;;19.36;86.86
55068;BME280;40965;52.368;9.712;2023-07-16T05:56:27;100437.09;;;19.39;86.97
55068;BME280;40965;52.368;9.712;2023-07-16T05:58:54;100448.72;;;19.37;87.09
55068;BME280;40965;52.368;9.712;2023-07-16T06:01:21;100450.38;;;19.39;87.25
55068;BME280;40965;52.368;9.712;2023-07-16T06:03:47;100438.66;;;19.43;86.68
55068;BME280;40965;52.368;9.712;2023-07-16T06:06:14;100442.88;;;19.47;86.35
55068;BME280;40965;52.368;9.712;2023-07-16T06:08:50;100443.50;;;19.53;85.98
55068;BME280;40965;52.368;9.712;2023-07-16T06:11:16;100453.81;;;19.59;84.87
55068;BME280;40965;52.368;9.712;2023-07-16T06:13:43;100437.59;;;19.65;84.51
55068;BME280;40965;52.368;9.712;2023-07-16T06:16:09;100441.97;;;19.66;83.96
55068;BME280;40965;52.368;9.712;2023-07-16T06:18:36;100454.25;;;19.69;83.41
55068;BME280;40965;52.368;9.712;2023-07-16T06:21:02;100455.81;;;19.73;82.87
55068;BME280;40965;52.368;9.712;2023-07-16T06:23:29;100459.66;;;19.85;81.65
55068;BME280;40965;52.368;9.712;2023-07-16T06:25:56;100465.22;;;19.97;81.21
55068;BME280;40965;52.368;9.712;2023-07-16T06:28:23;100460.88;;;20.12;79.60
55068;BME280;40965;52.368;9.712;2023-07-16T06:30:50;100459.84;;;20.32;78.31
55068;BME280;40965;52.368;9.712;2023-07-16T06:33:18;100471.63;;;20.44;77.70
55068;BME280;40965;52.368;9.712;2023-07-16T06:35:45;100470.94;;;20.41;77.18
55068;BME280;40965;52.368;9.712;2023-07-16T06:38:13;100465.31;;;20.29;77.09
55068;BME280;40965;52.368;9.712;2023-07-16T06:40:50;100451.75;;;20.18;77.28
55068;BME280;40965;52.368;9.712;2023-07-16T06:43:17;100439.50;;;20.15;76.72
55068;BME280;40965;52.368;9.712;2023-07-16T06:45:44;100472.13;;;20.17;77.15
55068;BME280;40965;52.368;9.712;2023-07-16T06:48:11;100475.34;;;20.24;76.53
55068;BME280;40965;52.368;9.712;2023-07-16T06:50:37;100480.94;;;20.36;76.21
55068;BME280;40965;52.368;9.712;2023-07-16T06:53:04;100487.00;;;20.55;75.30
55068;BME280;40965;52.368;9.712;2023-07-16T06:55:30;100491.88;;;20.80;73.63
55068;BME280;40965;52.368;9.712;2023-07-16T06:57:56;100473.72;;;21.05;72.52
55068;BME280;40965;52.368;9.712;2023-07-16T07:00:23;100481.09;;;20.99;70.87
55068;BME280;40965;52.368;9.712;2023-07-16T07:02:49;100487.28;;;21.00;70.74
55068;BME280;40965;52.368;9.712;2023-07-16T07:05:16;100494.81;;;20.92;71.94
55068;BME280;40965;52.368;9.712;2023-07-16T07:07:42;100491.66;;;21.01;70.51
55068;BME280;40965;52.368;9.712;2023-07-16T07:10:13;100503.41;;;21.13;69.84
55068;BME280;40965;52.368;9.712;2023-07-16T07:12:40;100501.53;;;21.15;69.91
55068;BME280;40965;52.368;9.712;2023-07-16T07:15:07;100498.88;;;21.15;69.79
55068;BME280;40965;52.368;9.712;2023-07-16T07:17:34;100506.34;;;21.08;67.29
55068;BME280;40965;52.368;9.712;2023-07-16T07:20:01;100504.63;;;21.07;67.11
55068;BME280;40965;52.368;9.712;2023-07-16T07:22:28;100521.75;;;20.86;63.65
55068;BME280;40965;52.368;9.712;2023-07-16T07:24:55;100512.84;;;20.87;62.27
55068;BME280;40965;52.368;9.712;2023-07-16T07:27:21;100505.16;;;21.14;61.95
55068;BME280;40965;52.368;9.712;2023-07-16T07:29:48;100495.25;;;21.64;58.63
55068;BME280;40965;52.368;9.712;2023-07-16T07:32:20;100502.94;;;21.85;55.66
55068;BME280;40965;52.368;9.712;2023-07-16T07:34:46;100499.94;;;22.36;53.58
55068;BME280;40965;52.368;9.712;2023-07-16T07:37:13;100492.34;;;22.73;52.87
55068;BME280;40965;52.368;9.712;2023-07-16T07:39:40;100498.44;;;23.04;51.07
55068;BME280;40965;52.368;9.712;2023-07-16T07:42:06;100509.06;;;23.33;49.61
55068;BME280;40965;52.368;9.712;2023-07-16T07:44:34;100494.78;;;23.34;48.08
55068;BME280;40965;52.368;9.712;2023-07-16T07:47:00;100505.47;;;23.46;47.26
55068;BME280;40965;52.368;9.712;2023-07-16T07:49:27;100495.84;;;23.44;47.02
55068;BME280;40965;52.368;9.712;2023-07-16T07:51:53;100489.81;;;23.27;45.53
55068;BME280;40965;52.368;9.712;2023-07-16T07:54:20;100509.28;;;23.15;45.92
55068;BME280;40965;52.368;9.712;2023-07-16T07:56:46;100511.44;;;23.37;45.57
55068;BME280;40965;52.368;9.712;2023-07-16T07:59:13;100525.25;;;23.44;43.54
55068;BME280;40965;52.368;9.712;2023-07-16T08:01:39;100512.25;;;23.52;43.33
55068;BME280;40965;52.368;9.712;2023-07-16T08:04:06;100509.34;;;23.83;42.21
55068;BME280;40965;52.368;9.712;2023-07-16T08:06:32;100534.75;;;23.90;42.73
55068;BME280;40965;52.368;9.712;2023-07-16T08:08:59;100533.34;;;24.50;41.35
55068;BME280;40965;52.368;9.712;2023-07-16T08:11:25;100538.91;;;24.73;41.20
55068;BME280;40965;52.368;9.712;2023-07-16T08:13:52;100517.75;;;24.70;40.00
55068;BME280;40965;52.368;9.712;2023-07-16T08:16:18;100546.88;;;24.74;40.28
55068;BME280;40965;52.368;9.712;2023-07-16T08:18:45;100547.88;;;24.98;39.32
55068;BME280;40965;52.368;9.712;2023-07-16T08:21:11;100542.16;;;25.41;38.86
55068;BME280;40965;52.368;9.712;2023-07-16T08:23:44;100549.16;;;25.55;38.14
55068;BME280;40965;52.368;9.712;2023-07-16T08:26:12;100553.22;;;25.85;38.05
55068;BME280;40965;52.368;9.712;2023-07-16T08:28:39;100559.00;;;26.03;37.90
55068;BME280;40965;52.368;9.712;2023-07-16T08:31:05;100569.94;;;26.13;37.42
55068;BME280;40965;52.368;9.712;2023-07-16T08:33:32;100565.81;;;25.96;36.88
55068;BME280;40965;52.368;9.712;2023-07-16T08:35:59;100555.72;;;25.51;38.08
55068;BME280;40965;52.368;9.712;2023-07-16T08:38:25;100569.03;;;25.76;38.06
55068;BME280;40965;52.368;9.712;2023-07-16T08:40:51;100557.59;;;26.46;36.71
55068;BME280;40965;52.368;9.712;2023-07-16T08:43:18;100563.31;;;26.41;36.21
55068;BME280;40965;52.368;9.712;2023-07-16T08:45:46;100574.84;;;25.95;36.43
55068;BME280;40965;52.368;9.712;2023-07-16T08:48:17;100566.97;;;25.56;37.49
55068;BME280;40965;52.368;9.712;2023-07-16T08:50:46;100565.44;;;24.50;38.43
55068;BME280;40965;52.368;9.712;2023-07-16T08:53:15;100563.03;;;23.79;39.26
55068;BME280;40965;52.368;9.712;2023-07-16T08:55:44;100561.97;;;23.55;39.98
55068;BME280;40965;52.368;9.712;2023-07-16T08:58:14;100574.50;;;23.67;39.96
55068;BME280;40965;52.368;9.712;2023-07-16T09:00:43;100571.41;;;23.46;40.60
55068;BME280;40965;52.368;9.712;2023-07-16T09:03:14;100568.88;;;23.30;40.71
55068;BME280;40965;52.368;9.712;2023-07-16T09:05:41;100565.50;;;23.41;40.55
55068;BME280;40965;52.368;9.712;2023-07-16T09:08:09;100562.28;;;24.71;38.51
55068;BME280;40965;52.368;9.712;2023-07-16T09:10:37;100558.13;;;25.91;36.34
55068;BME280;40965;52.368;9.712;2023-07-16T09:13:03;100556.81;;;26.21;36.00
55068;BME280;40965;52.368;9.712;2023-07-16T09:15:30;100556.97;;;26.42;35.74
55068;BME280;40965;52.368;9.712;2023-07-16T09:17:56;100563.44;;;26.39;35.94
55068;BME280;40965;52.368;9.712;2023-07-16T09:20:23;100558.88;;;26.76;35.39
55068;BME280;40965;52.368;9.712;2023-07-16T09:22:49;100567.66;;;27.12;35.20
55068;BME280;40965;52.368;9.712;2023-07-16T09:25:16;100562.06;;;28.14;33.11
55068;BME280;40965;52.368;9.712;2023-07-16T09:27:42;100565.81;;;28.44;32.96
55068;BME280;40965;52.368;9.712;2023-07-16T09:30:15;100564.47;;;29.11;31.40
55068;BME280;40965;52.368;9.712;2023-07-16T09:32:41;100567.13;;;29.01;31.90
55068;BME280;40965;52.368;9.712;2023-07-16T09:35:13;100573.25;;;29.54;31.62
55068;BME280;40965;52.368;9.712;2023-07-16T09:37:40;100570.41;;;29.15;30.96
55068;BME280;40965;52.368;9.712;2023-07-16T09:40:11;100572.44;;;30.12;30.50
55068;BME280;40965;52.368;9.712;2023-07-16T09:42:40;100580.13;;;30.36;29.45
55068;BME280;40965;52.368;9.712;2023-07-16T09:45:12;100568.69;;;29.04;31.11
55068;BME280;40965;52.368;9.712;2023-07-16T09:47:48;100576.69;;;27.88;32.81
55068;BME280;40965;52.368;9.712;2023-07-16T09:50:15;100584.84;;;28.10;32.51
55068;BME280;40965;52.368;9.712;2023-07-16T09:52:41;100579.88;;;26.93;33.65
55068;BME280;40965;52.368;9.712;2023-07-16T09:55:09;100576.63;;;28.11;32.53
55068;BME280;40965;52.368;9.712;2023-07-16T09:57:38;100582.66;;;27.92;32.17
55068;BME280;40965;52.368;9.712;2023-07-16T10:00:09;100572.31;;;27.10;33.73
55068;BME280;40965;52.368;9.712;2023-07-16T10:02:38;100589.25;;;26.76;35.08
55068;BME280;40965;52.368;9.712;2023-07-16T10:05:16;100588.00;;;27.71;33.90
55068;BME280;40965;52.368;9.712;2023-07-16T10:07:50;100580.34;;;28.83;32.23
55068;BME280;40965;52.368;9.712;2023-07-16T10:10:18;100586.38;;;29.88;30.67
55068;BME280;40965;52.368;9.712;2023-07-16T10:12:55;100585.53;;;29.97;30.38
55068;BME280;40965;52.368;9.712;2023-07-16T10:15:27;100575.97;;;30.32;30.10
55068;BME280;40965;52.368;9.712;2023-07-16T10:17:56;100577.31;;;31.23;28.93
55068;BME280;40965;52.368;9.712;2023-07-16T10:20:38;100570.22;;;31.86;27.12
55068;BME280;40965;52.368;9.712;2023-07-16T10:23:18;100571.50;;;32.62;25.93
55068;BME280;40965;52.368;9.712;2023-07-16T10:25:58;100569.00;;;32.95;25.68
55068;BME280;40965;52.368;9.712;2023-07-16T10:28:26;100582.81;;;32.84;26.18
55068;BME280;40965;52.368;9.712;2023-07-16T10:30:53;100573.41;;;31.99;26.64
55068;BME280;40965;52.368;9.712;2023-07-16T10:33:19;100579.50;;;30.62;28.15
55068;BME280;40965;52.368;9.712;2023-07-16T10:35:46;100592.44;;;31.16;28.07
55068;BME280;40965;52.368;9.712;2023-07-16T10:38:12;100580.38;;;31.38;27.23
55068;BME280;40965;52.368;9.712;2023-07-16T10:40:43;100579.19;;;31.87;25.79
55068;BME280;40965;52.368;9.712;2023-07-16T10:43:14;100581.81;;;31.96;25.59
55068;BME280;40965;52.368;9.712;2023-07-16T10:45:40;100587.72;;;31.18;26.32
55068;BME280;40965;52.368;9.712;2023-07-16T10:48:07;100594.16;;;30.60;27.47
55068;BME280;40965;52.368;9.712;2023-07-16T10:50:35;100589.22;;;31.30;27.19
55068;BME280;40965;52.368;9.712;2023-07-16T10:53:02;100598.06;;;32.77;25.42
55068;BME280;40965;52.368;9.712;2023-07-16T10:55:29;100619.19;;;33.93;24.72
55068;BME280;40965;52.368;9.712;2023-07-16T10:58:04;100594.03;;;33.67;23.86
55068;BME280;40965;52.368;9.712;2023-07-16T11:00:37;100617.31;;;33.26;24.32
55068;BME280;40965;52.368;9.712;2023-07-16T11:03:08;100606.75;;;32.89;24.64
55068;BME280;40965;52.368;9.712;2023-07-16T11:05:41;100602.16;;;33.15;24.67
55068;BME280;40965;52.368;9.712;2023-07-16T11:08:08;100600.28;;;32.81;23.88
55068;BME280;40965;52.368;9.712;2023-07-16T11:10:39;100596.31;;;33.28;23.66
55068;BME280;40965;52.368;9.712;2023-07-16T11:13:06;100602.53;;;32.94;24.08
55068;BME280;40965;52.368;9.712;2023-07-16T11:15:34;100590.53;;;33.31;23.39
55068;BME280;40965;52.368;9.712;2023-07-16T11:18:02;100597.88;;;33.47;23.18
55068;BME280;40965;52.368;9.712;2023-07-16T11:20:31;100598.66;;;34.16;22.54
55068;BME280;40965;52.368;9.712;2023-07-16T11:22:59;100598.69;;;32.26;24.77
55068;BME280;40965;52.368;9.712;2023-07-16T11:25:26;100605.38;;;31.40;26.03
55068;BME280;40965;52.368;9.712;2023-07-16T11:27:56;100598.44;;;32.38;24.73
55068;BME280;40965;52.368;9.712;2023-07-16T11:30:23;100601.94;;;32.56;24.61
55068;BME280;40965;52.368;9.712;2023-07-16T11:32:58;100604.47;;;31.95;24.92
55068;BME280;40965;52.368;9.712;2023-07-16T11:35:29;100621.78;;;31.11;24.93
55068;BME280;40965;52.368;9.712;2023-07-16T11:38:00;100606.44;;;30.25;26.53
55068;BME280;40965;52.368;9.712;2023-07-16T11:40:36;100606.81;;;30.59;25.96
55068;BME280;40965;52.368;9.712;2023-07-16T11:43:18;100613.50;;;30.35;26.68
55068;BME280;40965;52.368;9.712;2023-07-16T11:45:52;100588.09;;;31.51;25.29
55068;BME280;40965;52.368;9.712;2023-07-16T11:48:19;100604.41;;;30.36;26.69
55068;BME280;40965;52.368;9.712;2023-07-16T11:50:49;100608.53;;;30.60;26.46
55068;BME280;40965;52.368;9.712;2023-07-16T11:53:16;100599.91;;;31.32;25.85
55068;BME280;40965;52.368;9.712;2023-07-16T11:55:43;100623.22;;;32.69;24.64
55068;BME280;40965;52.368;9.712;2023-07-16T11:58:13;100604.00;;;33.15;23.50
55068;BME280;40965;52.368;9.712;2023-07-16T12:00:41;100611.16;;;33.75;23.34
55068;BME280;40965;52.368;9.712;2023-07-16T12:03:08;100593.88;;;34.75;22.51
55068;BME280;40965;52.368;9.712;2023-07-16T12:05:37;100604.41;;;34.78;21.87
55068;BME280;40965;52.368;9.712;2023-07-16T12:08:04;100578.81;;;33.90;22.60
55068;BME280;40965;52.368;9.712;2023-07-16T12:10:31;100613.16;;;31.25;25.36
55068;BME280;40965;52.368;9.712;2023-07-16T12:13:04;100624.53;;;30.91;25.63
55068;BME280;40965;52.368;9.712;2023-07-16T12:15:31;100625.66;;;31.26;25.14
55068;BME280;40965;52.368;9.712;2023-07-16T12:18:14;100624.34;;;31.86;24.91
55068;BME280;40965;52.368;9.712;2023-07-16T12:20:41;100617.28;;;32.47;24.45
55068;BME280;40965;52.368;9.712;2023-07-16T12:23:08;100611.66;;;31.69;25.23
55068;BME280;40965;52.368;9.712;2023-07-16T12:25:35;100611.22;;;32.27;24.53
55068;BME280;40965;52.368;9.712;2023-07-16T12:28:02;100614.13;;;33.39;23.68
55068;BME280;40965;52.368;9.712;2023-07-16T12:30:29;100617.69;;;34.40;22.67
55068;BME280;40965;52.368;9.712;2023-07-16T12:32:56;100618.16;;;34.93;22.12
55068;BME280;40965;52.368;9.712;2023-07-16T12:35:29;100625.31;;;33.10;23.75
55068;BME280;40965;52.368;9.712;2023-07-16T12:37:59;100618.53;;;32.53;24.30
55068;BME280;40965;52.368;9.712;2023-07-16T12:40:46;100606.72;;;33.50;23.48
55068;BME280;40965;52.368;9.712;2023-07-16T12:43:16;100638.91;;;33.87;22.51
55068;BME280;40965;52.368;9.712;2023-07-16T12:45:52;100630.13;;;33.59;23.11
55068;BME280;40965;52.368;9.712;2023-07-16T12:48:18;100625.16;;;34.88;22.29
55068;BME280;40965;52.368;9.712;2023-07-16T12:50:45;100635.84;;;34.15;22.16
55068;BME280;40965;52.368;9.712;2023-07-16T12:53:13;100628.72;;;34.06;22.43
55068;BME280;40965;52.368;9.712;2023-07-16T12:55:40;100629.22;;;34.75;21.68